Time;durP1;ratioP1;P1;durP2;ratioP2;P2;SDS_P1;SDS_P2;PMS_P1;PMS_P2;Temp;Humidity;BMP_temperature;BMP_pressure;BME280_temperature;BME280_humidity;BME280_pressure;Samples;Min_cycle;Max_cycle;Signal;HPM_P1;HPM_P2
2022/01/15 00:01:40;;;;;;;54.07;29.53;;;6.40;99.90;;;;;;5035374;28;20473;-67
2022/01/15 00:04:07;;;;;;;53.67;28.10;;;6.40;99.90;;;;;;5035284;28;20475;-67
2022/01/15 00:06:34;;;;;;;48.87;28.27;;;6.40;99.90;;;;;;5035273;28;20454;-68
2022/01/15 00:09:00;;;;;;;53.10;27.50;;;6.40;99.90;;;;;;5035195;28;20443;-68
2022/01/15 00:11:27;;;;;;;50.33;28.70;;;6.40;99.90;;;;;;5035095;28;20454;-68
2022/01/15 00:13:57;;;;;;;51.27;28.97;;;6.40;99.90;;;;;;5035153;28;20469;-68
2022/01/15 00:16:32;;;;;;;49.33;25.43;;;6.40;99.90;;;;;;5034922;28;20541;-68
2022/01/15 00:19:07;;;;;;;57.20;27.30;;;6.40;99.90;;;;;;5034731;28;20979;-68
2022/01/15 00:21:35;;;;;;;58.03;28.80;;;6.30;99.90;;;;;;5035046;28;20441;-68
2022/01/15 00:24:02;;;;;;;56.40;27.63;;;6.40;99.90;;;;;;5034683;28;20863;-68
2022/01/15 00:26:29;;;;;;;52.30;28.30;;;6.30;99.90;;;;;;5034620;28;20453;-68
2022/01/15 00:28:56;;;;;;;50.53;26.60;;;6.40;99.90;;;;;;5035000;28;20443;-68
2022/01/15 00:31:23;;;;;;;55.70;25.93;;;6.30;99.90;;;;;;5034818;28;20807;-68
2022/01/15 00:33:50;;;;;;;55.50;27.63;;;6.30;99.90;;;;;;5034762;28;20478;-67
2022/01/15 00:36:18;;;;;;;48.90;26.90;;;6.30;99.90;;;;;;5034750;28;20463;-67
2022/01/15 00:38:45;;;;;;;53.13;28.30;;;6.30;99.90;;;;;;5034646;28;20500;-68
2022/01/15 00:41:12;;;;;;;53.37;27.20;;;6.30;99.90;;;;;;5034613;28;20447;-68
2022/01/15 00:43:40;;;;;;;51.93;26.07;;;6.20;99.90;;;;;;5034513;28;20446;-67
2022/01/15 00:46:07;;;;;;;49.27;26.27;;;6.20;99.90;;;;;;5034501;28;20533;-67
2022/01/15 00:48:34;;;;;;;55.77;29.53;;;6.20;99.90;;;;;;5034551;28;20530;-67
2022/01/15 00:51:00;;;;;;;51.03;28.40;;;6.20;99.90;;;;;;5034515;28;20453;-67
2022/01/15 00:53:30;;;;;;;54.43;26.17;;;6.20;99.90;;;;;;5034429;28;20446;-68
2022/01/15 00:55:57;;;;;;;51.77;27.33;;;6.20;99.90;;;;;;5034343;28;20450;-68
2022/01/15 00:58:24;;;;;;;54.67;26.83;;;6.20;99.90;;;;;;5033945;28;20482;-68
2022/01/15 01:00:50;;;;;;;51.60;26.20;;;6.10;99.90;;;;;;5034250;28;20864;-68
2022/01/15 01:03:17;;;;;;;50.67;27.47;;;6.10;99.90;;;;;;5034149;28;20450;-68
2022/01/15 01:05:44;;;;;;;55.47;29.83;;;6.10;99.90;;;;;;5033844;28;20466;-67
2022/01/15 01:08:11;;;;;;;49.40;26.03;;;6.10;99.90;;;;;;5033888;28;20442;-68
2022/01/15 01:10:55;;;;;;;50.27;26.40;;;6.10;99.90;;;;;;5034106;28;20455;-68
2022/01/15 01:20:03;;;;;;;45.80;25.43;;;6.00;99.90;;;;;;5033856;28;20434;-68
2022/01/15 01:24:44;;;;;;;46.97;23.37;;;6.00;99.90;;;;;;5033734;28;20465;-68
2022/01/15 01:27:18;;;;;;;48.07;25.10;;;6.00;99.90;;;;;;5034158;28;20450;-67
2022/01/15 01:30:03;;;;;;;44.73;25.50;;;5.90;99.90;;;;;;5033881;28;20806;-68
2022/01/15 01:32:42;;;;;;;45.40;24.00;;;5.90;99.90;;;;;;5033896;28;20450;-68
2022/01/15 01:35:14;;;;;;;45.30;23.37;;;5.90;99.90;;;;;;5033726;28;20552;-68
2022/01/15 01:37:45;;;;;;;46.50;24.43;;;5.90;99.90;;;;;;5033728;28;20864;-68
2022/01/15 01:40:22;;;;;;;45.97;24.50;;;5.90;99.90;;;;;;5033437;28;20426;-68
2022/01/15 01:43:00;;;;;;;48.27;24.50;;;5.90;99.90;;;;;;5033363;28;20431;-68
2022/01/15 01:45:27;;;;;;;47.97;25.20;;;5.90;99.90;;;;;;5033595;28;20466;-68
2022/01/15 01:47:54;;;;;;;43.73;24.07;;;5.90;99.90;;;;;;5033483;28;20443;-68
2022/01/15 01:50:23;;;;;;;41.10;23.47;;;5.90;99.90;;;;;;5033658;28;20446;-68
2022/01/15 01:52:51;;;;;;;42.63;24.80;;;5.90;99.90;;;;;;5033579;28;20442;-68
2022/01/15 01:55:22;;;;;;;40.77;23.37;;;5.90;99.90;;;;;;5033534;28;20827;-67
2022/01/15 01:57:51;;;;;;;38.17;22.50;;;5.90;99.90;;;;;;5033638;28;20427;-68
2022/01/15 02:00:20;;;;;;;38.87;22.50;;;5.90;99.90;;;;;;5034743;28;20451;-68
2022/01/15 02:02:47;;;;;;;39.93;22.20;;;5.80;99.90;;;;;;5034189;28;20454;-68
2022/01/15 02:05:15;;;;;;;44.10;23.00;;;5.80;99.90;;;;;;5034693;28;20466;-68
2022/01/15 02:07:43;;;;;;;38.80;21.80;;;5.80;99.90;;;;;;5034444;28;20469;-68
2022/01/15 02:10:12;;;;;;;39.30;22.27;;;5.80;99.90;;;;;;5033638;28;20529;-68
2022/01/15 02:12:40;;;;;;;35.87;20.50;;;5.80;99.90;;;;;;5033482;28;20442;-68
2022/01/15 02:15:12;;;;;;;41.80;21.30;;;5.80;99.90;;;;;;5034552;28;20980;-67
2022/01/15 02:17:39;;;;;;;41.47;21.57;;;5.80;99.90;;;;;;5037409;28;20485;-67
2022/01/15 02:20:49;;;;;;;38.47;21.33;;;5.80;99.90;;;;;;5037088;28;21023;-67
2022/01/15 02:23:33;;;;;;;35.90;18.53;;;5.80;99.90;;;;;;5037155;28;20477;-67
2022/01/15 02:26:02;;;;;;;43.40;19.83;;;5.80;99.90;;;;;;5036970;28;20438;-67
2022/01/15 02:28:30;;;;;;;33.60;17.80;;;5.80;99.90;;;;;;5037190;28;20442;-68
2022/01/15 02:30:59;;;;;;;32.97;18.20;;;5.80;99.90;;;;;;5037600;28;20490;-68
2022/01/15 02:33:27;;;;;;;35.17;20.07;;;5.80;99.90;;;;;;5037088;28;20462;-68
2022/01/15 02:35:55;;;;;;;38.73;21.07;;;5.80;99.90;;;;;;5037039;28;20528;-67
2022/01/15 02:38:24;;;;;;;37.07;20.13;;;5.80;99.90;;;;;;5036617;28;20474;-68
2022/01/15 02:40:51;;;;;;;34.20;18.90;;;5.80;99.90;;;;;;5036607;28;20949;-68
2022/01/15 02:43:21;;;;;;;37.23;19.83;;;5.80;99.90;;;;;;5036672;28;20450;-68
2022/01/15 02:45:54;;;;;;;35.37;19.70;;;5.80;99.90;;;;;;5037608;28;20502;-68
2022/01/15 02:48:22;;;;;;;36.77;17.63;;;5.70;99.90;;;;;;5036897;28;20474;-68
2022/01/15 02:50:49;;;;;;;33.73;19.30;;;5.70;99.90;;;;;;5036828;28;20445;-68
2022/01/15 02:53:18;;;;;;;32.07;18.37;;;5.80;99.90;;;;;;5036723;28;20446;-68
2022/01/15 02:55:46;;;;;;;30.27;17.70;;;5.80;99.90;;;;;;5036183;28;20541;-67
2022/01/15 02:58:13;;;;;;;35.03;19.50;;;5.80;99.90;;;;;;5036487;28;20446;-67
2022/01/15 03:00:41;;;;;;;36.13;18.60;;;5.80;99.90;;;;;;5036580;28;20454;-68
2022/01/15 03:03:08;;;;;;;37.30;18.90;;;5.70;99.90;;;;;;5036528;28;20450;-68
2022/01/15 03:05:34;;;;;;;31.47;18.07;;;5.70;99.90;;;;;;5036439;28;20827;-68
2022/01/15 03:08:01;;;;;;;33.37;19.07;;;5.70;99.90;;;;;;5036447;28;20461;-68
2022/01/15 03:10:30;;;;;;;32.43;18.33;;;5.70;99.90;;;;;;5036456;28;20442;-68
2022/01/15 03:12:58;;;;;;;36.00;19.40;;;5.70;99.90;;;;;;5036340;28;20457;-68
2022/01/15 03:15:25;;;;;;;32.57;18.03;;;5.70;99.90;;;;;;5035897;28;20470;-68
2022/01/15 03:17:52;;;;;;;37.47;18.10;;;5.70;99.90;;;;;;5036272;28;20449;-68
2022/01/15 03:20:21;;;;;;;28.60;16.83;;;5.70;99.90;;;;;;5036876;28;20875;-68
2022/01/15 03:22:48;;;;;;;30.87;19.27;;;5.70;99.90;;;;;;5036060;28;20549;-68
2022/01/15 03:25:15;;;;;;;32.30;18.83;;;5.70;99.90;;;;;;5035623;28;20489;-68
2022/01/15 03:27:44;;;;;;;33.77;16.73;;;5.70;99.90;;;;;;5034660;28;20442;-68
2022/01/15 03:30:12;;;;;;;32.90;17.37;;;5.70;99.90;;;;;;5035728;28;20854;-68
2022/01/15 03:32:43;;;;;;;32.30;17.77;;;5.60;99.90;;;;;;5035719;28;20810;-68
2022/01/15 03:35:12;;;;;;;28.70;15.73;;;5.60;99.90;;;;;;5035999;28;20478;-68
2022/01/15 03:37:39;;;;;;;27.13;15.40;;;5.60;99.90;;;;;;5035567;28;20451;-68
2022/01/15 03:40:07;;;;;;;30.07;15.27;;;5.60;99.90;;;;;;5035853;28;20487;-68
2022/01/15 03:42:34;;;;;;;28.80;15.77;;;5.60;99.90;;;;;;5035585;28;20824;-68
2022/01/15 03:45:03;;;;;;;31.60;17.20;;;5.60;99.90;;;;;;5035397;28;20976;-68
2022/01/15 03:47:29;;;;;;;30.50;16.50;;;5.60;99.90;;;;;;5035752;28;20443;-68
2022/01/15 03:49:56;;;;;;;33.10;18.27;;;5.60;99.90;;;;;;5035479;28;20442;-68
2022/01/15 03:52:23;;;;;;;32.00;17.90;;;5.60;99.90;;;;;;5035676;28;20450;-68
2022/01/15 03:54:50;;;;;;;29.90;17.80;;;5.60;99.90;;;;;;5035546;28;20466;-68
2022/01/15 03:57:16;;;;;;;31.37;17.10;;;5.70;99.90;;;;;;5036086;28;20450;-68
2022/01/15 03:59:43;;;;;;;32.93;17.87;;;5.60;99.90;;;;;;5035470;28;20482;-68
2022/01/15 04:02:11;;;;;;;31.73;16.00;;;5.70;99.90;;;;;;5035477;28;20814;-68
2022/01/15 04:04:38;;;;;;;28.47;16.43;;;5.60;99.90;;;;;;5035464;28;20467;-68
2022/01/15 04:07:05;;;;;;;31.60;17.13;;;5.60;99.90;;;;;;5035498;28;20565;-68
2022/01/15 04:09:32;;;;;;;36.60;18.27;;;5.60;99.90;;;;;;5035190;28;20449;-68
2022/01/15 04:11:58;;;;;;;29.43;16.10;;;5.60;99.90;;;;;;5035335;28;20442;-68
2022/01/15 04:14:25;;;;;;;31.33;16.67;;;5.60;99.90;;;;;;5035546;28;20481;-68
2022/01/15 04:16:52;;;;;;;31.43;15.53;;;5.60;99.90;;;;;;5035324;28;20447;-68
2022/01/15 04:19:20;;;;;;;30.07;17.57;;;5.60;99.90;;;;;;5035449;28;20478;-68
2022/01/15 04:21:47;;;;;;;31.70;16.07;;;5.60;99.90;;;;;;5035702;28;20504;-68
2022/01/15 04:24:14;;;;;;;30.07;16.63;;;5.60;99.90;;;;;;5035394;28;20481;-68
2022/01/15 04:26:41;;;;;;;29.83;15.97;;;5.60;99.90;;;;;;5035292;28;20454;-68
2022/01/15 04:29:07;;;;;;;33.13;16.87;;;5.70;99.90;;;;;;5035143;28;20450;-68
2022/01/15 04:31:46;;;;;;;32.77;16.87;;;5.70;99.90;;;;;;5035341;28;20446;-68
2022/01/15 04:34:14;;;;;;;31.27;15.97;;;5.70;99.90;;;;;;5035328;28;20466;-68
2022/01/15 04:36:42;;;;;;;32.73;16.93;;;5.70;99.90;;;;;;5035415;28;20529;-68
2022/01/15 04:39:10;;;;;;;30.63;16.80;;;5.60;99.90;;;;;;5034506;28;20972;-68
2022/01/15 04:41:36;;;;;;;29.33;16.27;;;5.60;99.90;;;;;;5034568;28;20973;-68
2022/01/15 04:44:05;;;;;;;31.53;16.30;;;5.70;99.90;;;;;;5034668;28;20473;-67
2022/01/15 04:46:32;;;;;;;29.30;16.27;;;5.70;99.90;;;;;;5034666;28;20815;-68
2022/01/15 04:48:58;;;;;;;29.97;15.97;;;5.60;99.90;;;;;;5034311;28;20447;-68
2022/01/15 04:51:25;;;;;;;34.23;18.03;;;5.60;99.90;;;;;;5034262;28;20839;-68
2022/01/15 04:53:53;;;;;;;27.73;15.17;;;5.60;99.90;;;;;;5034512;28;20450;-68
2022/01/15 04:56:20;;;;;;;29.70;16.43;;;5.50;99.90;;;;;;5034512;28;20449;-68
2022/01/15 04:58:47;;;;;;;30.43;16.57;;;5.50;99.90;;;;;;5034459;28;20446;-68
2022/01/15 05:01:14;;;;;;;27.17;14.63;;;5.50;99.90;;;;;;5034529;28;20470;-68
2022/01/15 05:03:40;;;;;;;26.90;14.77;;;5.50;99.90;;;;;;5034468;28;20803;-68
2022/01/15 05:06:07;;;;;;;29.30;13.93;;;5.50;99.90;;;;;;5034882;28;20454;-68
2022/01/15 05:08:34;;;;;;;29.03;15.00;;;5.50;99.90;;;;;;5035588;28;20446;-68
2022/01/15 05:11:12;;;;;;;33.60;15.57;;;5.50;99.90;;;;;;5036058;28;20446;-68
2022/01/15 05:13:39;;;;;;;28.97;14.37;;;5.50;99.90;;;;;;5035222;28;20434;-68
2022/01/15 05:16:06;;;;;;;27.53;14.57;;;5.50;99.90;;;;;;5034561;28;20454;-68
2022/01/15 05:18:33;;;;;;;28.97;14.00;;;5.60;99.90;;;;;;5033883;28;20446;-68
2022/01/15 05:21:00;;;;;;;36.23;15.80;;;5.50;99.90;;;;;;5033979;28;20493;-68
2022/01/15 05:23:27;;;;;;;29.43;15.97;;;5.50;99.90;;;;;;5033565;28;20454;-68
2022/01/15 05:25:53;;;;;;;30.50;14.47;;;5.50;99.90;;;;;;5034021;28;20478;-68
2022/01/15 05:28:21;;;;;;;33.60;16.00;;;5.50;99.90;;;;;;5033934;28;20454;-68
2022/01/15 05:30:48;;;;;;;31.50;16.90;;;5.50;99.90;;;;;;5033939;28;20802;-68
2022/01/15 05:33:16;;;;;;;31.63;15.80;;;5.50;99.90;;;;;;5033818;28;20450;-68
2022/01/15 05:35:42;;;;;;;31.60;16.17;;;5.60;99.90;;;;;;5033351;28;21084;-68
2022/01/15 05:38:09;;;;;;;26.93;14.90;;;5.50;99.90;;;;;;5033735;28;20450;-68
2022/01/15 05:40:36;;;;;;;35.67;16.20;;;5.60;99.90;;;;;;5033644;28;20485;-68
2022/01/15 05:43:03;;;;;;;37.60;16.13;;;5.50;99.90;;;;;;5033742;28;20454;-68
2022/01/15 05:45:31;;;;;;;31.27;15.20;;;5.50;99.90;;;;;;5033569;28;20495;-68
2022/01/15 05:47:58;;;;;;;30.20;15.80;;;5.50;99.90;;;;;;5033650;28;20454;-68
2022/01/15 05:50:25;;;;;;;30.40;15.73;;;5.50;99.90;;;;;;5032827;28;20467;-68
2022/01/15 05:52:52;;;;;;;34.07;17.10;;;5.50;99.90;;;;;;5033565;28;20446;-68
2022/01/15 05:55:18;;;;;;;28.50;16.00;;;5.50;99.90;;;;;;5033470;28;20467;-68
2022/01/15 05:57:45;;;;;;;28.83;16.30;;;5.50;99.90;;;;;;5033456;28;20450;-68
2022/01/15 06:00:12;;;;;;;28.20;16.03;;;5.40;99.90;;;;;;5033326;28;20478;-68
2022/01/15 06:02:41;;;;;;;30.80;15.80;;;5.40;99.90;;;;;;5033163;28;20944;-68
2022/01/15 06:05:08;;;;;;;25.93;15.80;;;5.40;99.90;;;;;;5033307;28;20469;-68
2022/01/15 06:07:35;;;;;;;31.33;17.53;;;5.30;99.90;;;;;;5033336;28;20457;-68
2022/01/15 06:10:02;;;;;;;28.97;16.57;;;5.30;99.90;;;;;;5033341;28;20449;-68
2022/01/15 06:12:31;;;;;;;29.57;16.47;;;5.30;99.90;;;;;;5033314;28;20446;-68
2022/01/15 06:14:58;;;;;;;31.37;18.30;;;5.30;99.90;;;;;;5033267;28;20466;-67
2022/01/15 06:17:25;;;;;;;37.50;18.83;;;5.30;99.90;;;;;;5033307;28;20861;-68
2022/01/15 06:19:53;;;;;;;26.20;15.30;;;5.30;99.90;;;;;;5033190;28;20482;-68
2022/01/15 06:22:20;;;;;;;33.17;16.77;;;5.30;99.90;;;;;;5033248;28;20454;-68
2022/01/15 06:24:47;;;;;;;28.73;15.40;;;5.30;99.90;;;;;;5032753;28;21016;-67
2022/01/15 06:27:16;;;;;;;25.63;16.37;;;5.30;99.90;;;;;;5033227;28;20453;-68
2022/01/15 06:29:42;;;;;;;26.73;16.17;;;5.40;99.90;;;;;;5033163;28;20443;-68
2022/01/15 06:32:09;;;;;;;27.63;14.87;;;5.30;99.90;;;;;;5033221;28;20450;-68
2022/01/15 06:34:36;;;;;;;30.90;17.30;;;5.30;99.90;;;;;;5033067;28;20477;-68
2022/01/15 06:37:05;;;;;;;28.00;16.20;;;5.30;99.90;;;;;;5033120;28;20451;-68
2022/01/15 06:39:32;;;;;;;25.63;15.83;;;5.30;99.90;;;;;;5033000;28;20442;-68
2022/01/15 06:41:59;;;;;;;26.10;16.20;;;5.40;99.90;;;;;;5033239;28;20454;-68
2022/01/15 06:44:26;;;;;;;27.97;15.90;;;5.30;99.90;;;;;;5033123;28;20462;-68
2022/01/15 06:46:54;;;;;;;26.33;14.67;;;5.30;99.90;;;;;;5033043;28;20449;-68
2022/01/15 06:49:21;;;;;;;24.73;15.00;;;5.40;99.90;;;;;;5032693;28;20947;-68
2022/01/15 06:51:48;;;;;;;25.50;14.70;;;5.30;99.90;;;;;;5032722;28;20449;-68
2022/01/15 06:54:16;;;;;;;26.70;16.30;;;5.40;99.90;;;;;;5032875;28;20482;-68
2022/01/15 06:56:43;;;;;;;24.30;15.20;;;5.40;99.90;;;;;;5032980;28;20450;-68
2022/01/15 06:59:09;;;;;;;23.13;14.83;;;5.30;99.90;;;;;;5032935;28;20470;-68
2022/01/15 07:01:36;;;;;;;26.37;16.07;;;5.30;99.90;;;;;;5034911;28;20493;-68
2022/01/15 07:04:03;;;;;;;28.30;15.43;;;5.20;99.90;;;;;;5036218;28;20470;-68
2022/01/15 07:06:30;;;;;;;25.57;15.47;;;5.20;99.90;;;;;;5036558;28;20457;-68
2022/01/15 07:08:57;;;;;;;24.73;15.80;;;5.20;99.90;;;;;;5036533;28;20450;-68
2022/01/15 07:11:25;;;;;;;26.63;16.13;;;5.20;99.90;;;;;;5036484;28;20438;-68
2022/01/15 07:13:51;;;;;;;27.47;16.03;;;5.20;99.90;;;;;;5036467;28;20851;-68
2022/01/15 07:16:18;;;;;;;26.60;16.20;;;5.20;99.90;;;;;;5036285;28;20482;-68
2022/01/15 07:18:45;;;;;;;26.43;16.00;;;5.20;99.90;;;;;;5035992;28;20817;-68
2022/01/15 07:21:12;;;;;;;26.43;15.90;;;5.20;99.90;;;;;;5036244;28;20488;-68
2022/01/15 07:23:39;;;;;;;24.13;15.77;;;5.20;99.90;;;;;;5035944;28;20516;-68
2022/01/15 07:26:06;;;;;;;22.60;15.30;;;5.20;99.90;;;;;;5036256;28;20411;-68
2022/01/15 07:28:35;;;;;;;23.87;14.20;;;5.30;99.90;;;;;;5036100;28;20454;-67
2022/01/15 07:31:01;;;;;;;21.17;14.53;;;5.30;99.90;;;;;;5036113;28;20442;-67
2022/01/15 07:33:28;;;;;;;22.10;14.33;;;5.20;99.90;;;;;;5035644;28;20794;-68
2022/01/15 07:35:55;;;;;;;25.40;16.33;;;5.20;99.90;;;;;;5035920;28;20478;-68
2022/01/15 07:38:23;;;;;;;25.77;16.50;;;5.20;99.90;;;;;;5035712;28;20446;-68
2022/01/15 07:40:53;;;;;;;23.97;15.40;;;5.20;99.90;;;;;;5035936;28;20846;-68
2022/01/15 07:43:20;;;;;;;24.40;16.27;;;5.20;99.90;;;;;;5035702;28;20431;-68
2022/01/15 07:45:48;;;;;;;21.37;13.93;;;5.30;99.90;;;;;;5035795;28;20466;-68
2022/01/15 07:48:15;;;;;;;21.73;15.03;;;5.20;99.90;;;;;;5035830;28;20457;-67
2022/01/15 07:50:42;;;;;;;21.77;14.73;;;5.20;99.90;;;;;;5035782;28;20415;-67
2022/01/15 07:53:09;;;;;;;24.17;16.43;;;5.20;99.90;;;;;;5035706;28;20446;-67
2022/01/15 07:55:36;;;;;;;21.23;15.80;;;5.20;99.90;;;;;;5035323;28;20992;-67
2022/01/15 07:58:03;;;;;;;23.50;14.57;;;5.30;99.90;;;;;;5035601;28;20817;-67
2022/01/15 08:00:30;;;;;;;22.97;14.83;;;5.20;99.90;;;;;;5035367;28;21038;-67
2022/01/15 08:02:58;;;;;;;20.37;14.47;;;5.30;99.90;;;;;;5035574;28;20450;-68
2022/01/15 08:05:25;;;;;;;25.57;15.50;;;5.20;99.90;;;;;;5035535;28;20466;-68
2022/01/15 08:07:51;;;;;;;17.33;12.87;;;5.30;99.90;;;;;;5035548;28;20458;-68
2022/01/15 08:10:18;;;;;;;22.77;15.07;;;5.30;99.90;;;;;;5035695;28;20450;-68
2022/01/15 08:12:48;;;;;;;22.00;14.23;;;5.30;99.90;;;;;;5035504;28;20450;-67
2022/01/15 08:15:15;;;;;;;23.00;15.07;;;5.20;99.90;;;;;;5037075;28;20569;-67
2022/01/15 08:17:42;;;;;;;26.70;15.73;;;5.20;99.90;;;;;;5036294;28;20455;-67
2022/01/15 08:20:12;;;;;;;24.00;15.63;;;5.30;99.90;;;;;;5035599;28;20501;-67
2022/01/15 08:22:40;;;;;;;21.50;15.27;;;5.30;99.90;;;;;;5035223;28;20826;-67
2022/01/15 08:25:07;;;;;;;22.47;16.47;;;5.30;99.90;;;;;;5035352;28;20968;-67
2022/01/15 08:27:34;;;;;;;22.40;16.80;;;5.40;99.90;;;;;;5034799;28;20935;-67
2022/01/15 08:30:01;;;;;;;22.73;15.57;;;5.40;99.90;;;;;;5035000;28;20822;-67
2022/01/15 08:32:28;;;;;;;24.03;17.33;;;5.40;99.90;;;;;;5035029;28;20438;-68
2022/01/15 08:34:54;;;;;;;23.80;17.13;;;5.40;99.90;;;;;;5034449;28;20984;-67
2022/01/15 08:37:22;;;;;;;21.13;15.50;;;5.40;99.90;;;;;;5034790;28;20446;-67
2022/01/15 08:39:49;;;;;;;22.30;15.73;;;5.30;99.90;;;;;;5034839;28;20450;-67
2022/01/15 08:42:16;;;;;;;20.03;15.50;;;5.40;99.90;;;;;;5034641;28;20485;-67
2022/01/15 08:44:44;;;;;;;19.87;15.83;;;5.30;99.90;;;;;;5034319;28;20976;-67
2022/01/15 08:47:12;;;;;;;22.43;14.93;;;5.40;99.90;;;;;;5034412;28;20889;-68
2022/01/15 08:49:39;;;;;;;19.87;15.37;;;5.30;99.90;;;;;;5034327;28;20957;-67
2022/01/15 08:52:07;;;;;;;22.97;15.60;;;5.40;99.90;;;;;;5034308;28;20937;-67
2022/01/15 08:54:35;;;;;;;24.23;17.60;;;5.40;99.90;;;;;;5034146;28;21006;-67
2022/01/15 08:57:02;;;;;;;22.03;16.97;;;5.30;99.90;;;;;;5034442;28;20446;-67
2022/01/15 08:59:48;;;;;;;17.40;14.70;;;5.40;99.90;;;;;;5034420;28;20469;-67
2022/01/15 09:02:16;;;;;;;19.57;15.20;;;5.40;99.90;;;;;;5034292;28;20475;-67
2022/01/15 09:04:43;;;;;;;18.37;15.00;;;5.40;99.90;;;;;;5034270;28;20466;-67
2022/01/15 09:07:10;;;;;;;21.30;16.17;;;5.40;99.90;;;;;;5034331;28;20477;-68
2022/01/15 09:09:38;;;;;;;18.30;14.47;;;5.30;99.90;;;;;;5034227;28;20454;-68
2022/01/15 09:12:05;;;;;;;20.73;15.00;;;5.30;99.90;;;;;;5034197;28;20460;-68
2022/01/15 09:14:32;;;;;;;18.53;14.10;;;5.30;99.90;;;;;;5034106;28;20462;-67
2022/01/15 09:16:59;;;;;;;17.77;14.43;;;5.30;99.90;;;;;;5034183;28;20431;-68
2022/01/15 09:19:26;;;;;;;20.20;15.53;;;5.40;99.90;;;;;;5033982;28;20446;-67
2022/01/15 09:21:53;;;;;;;19.10;14.47;;;5.40;99.90;;;;;;5034074;28;20474;-68
2022/01/15 09:24:19;;;;;;;17.63;14.73;;;5.40;99.90;;;;;;5033765;28;20477;-67
2022/01/15 09:27:00;;;;;;;18.10;14.17;;;5.50;99.90;;;;;;5033894;28;20445;-67
2022/01/15 09:32:12;;;;;;;17.10;13.23;;;5.50;99.90;;;;;;5033961;28;20502;-67
2022/01/15 09:34:39;;;;;;;18.60;14.00;;;5.50;99.90;;;;;;5033808;28;20474;-68
2022/01/15 09:37:07;;;;;;;16.10;12.77;;;5.60;99.90;;;;;;5033843;28;20450;-68
2022/01/15 09:39:34;;;;;;;16.70;12.83;;;5.50;99.90;;;;;;5033522;28;20500;-68
2022/01/15 09:42:02;;;;;;;18.07;13.53;;;5.50;99.90;;;;;;5033317;28;20999;-67
2022/01/15 09:44:29;;;;;;;15.00;12.37;;;5.50;99.90;;;;;;5033609;28;20474;-67
2022/01/15 09:46:57;;;;;;;18.63;12.40;;;5.60;99.90;;;;;;5033281;28;20442;-68
2022/01/15 09:49:25;;;;;;;16.40;12.60;;;5.60;99.90;;;;;;5033331;28;20451;-68
2022/01/15 09:52:08;;;;;;;14.33;11.83;;;5.60;99.90;;;;;;5033578;28;20447;-67
2022/01/15 09:54:35;;;;;;;14.60;12.23;;;5.60;99.90;;;;;;5033697;28;20896;-67
2022/01/15 09:57:03;;;;;;;17.20;13.20;;;5.60;99.90;;;;;;5033489;28;20533;-67
2022/01/15 09:59:30;;;;;;;15.27;11.50;;;5.60;99.90;;;;;;5033141;28;20442;-67
2022/01/15 10:02:02;;;;;;;15.33;11.87;;;5.70;99.90;;;;;;5033375;28;20482;-69
2022/01/15 10:04:31;;;;;;;19.83;12.87;;;5.80;99.90;;;;;;5033093;28;20995;-68
2022/01/15 10:07:09;;;;;;;15.37;12.70;;;5.80;99.90;;;;;;5033165;28;20819;-69
2022/01/15 10:09:36;;;;;;;16.43;13.50;;;5.80;99.90;;;;;;5033488;28;20447;-70
2022/01/15 10:12:05;;;;;;;15.57;13.30;;;5.80;99.90;;;;;;5033390;28;20442;-71
2022/01/15 10:14:33;;;;;;;17.80;14.30;;;5.90;99.90;;;;;;5033349;28;20474;-68
2022/01/15 10:17:03;;;;;;;15.00;12.97;;;6.00;99.90;;;;;;5033330;28;20435;-67
2022/01/15 11:02:59;;;;;;;16.60;13.17;;;6.20;99.90;;;;;;5111718;27;20926;-66
2022/01/15 11:05:45;;;;;;;17.33;12.87;;;7.10;99.90;;;;;;5091895;28;20485;-66
2022/01/15 11:08:39;;;;;;;13.60;12.17;;;7.10;99.90;;;;;;5091937;28;20428;-66
2022/01/15 11:11:07;;;;;;;17.23;12.83;;;7.20;99.90;;;;;;5091437;28;20468;-66
2022/01/15 11:13:37;;;;;;;16.30;13.23;;;7.10;99.90;;;;;;5090889;28;20466;-66
2022/01/15 11:16:07;;;;;;;14.47;12.67;;;7.00;99.90;;;;;;5090647;28;20467;-66
2022/01/15 11:18:37;;;;;;;15.80;12.87;;;6.90;99.90;;;;;;5090661;28;20432;-66
2022/01/15 11:21:07;;;;;;;14.57;13.07;;;6.90;99.90;;;;;;5090553;28;20440;-66
2022/01/15 11:23:35;;;;;;;13.03;11.63;;;6.90;99.90;;;;;;5090397;28;20459;-66
2022/01/15 11:26:05;;;;;;;19.30;13.33;;;6.90;99.90;;;;;;5090490;28;20485;-66
2022/01/15 11:28:33;;;;;;;14.00;12.50;;;6.90;99.90;;;;;;5090384;28;20439;-66
2022/01/15 11:31:03;;;;;;;22.50;14.40;;;6.90;99.90;;;;;;5090191;28;20480;-66
2022/01/15 11:33:32;;;;;;;15.80;13.40;;;7.00;99.90;;;;;;5090231;28;20487;-66
2022/01/15 11:36:01;;;;;;;16.60;14.80;;;7.00;99.90;;;;;;5090185;28;20466;-66
2022/01/15 11:38:43;;;;;;;21.40;15.40;;;7.00;99.90;;;;;;5089829;28;20931;-66
2022/01/15 11:41:45;;;;;;;14.90;12.93;;;7.10;99.90;;;;;;5090032;28;20480;-66
2022/01/15 11:44:17;;;;;;;14.60;12.00;;;7.10;99.90;;;;;;5083932;28;20507;-66
2022/01/15 11:46:47;;;;;;;15.40;13.80;;;7.20;99.90;;;;;;5090050;28;20523;-66
2022/01/15 11:49:36;;;;;;;15.23;13.63;;;7.30;99.90;;;;;;5089743;28;20424;-66
2022/01/15 11:52:36;;;;;;;15.80;13.10;;;7.30;99.90;;;;;;5089492;28;20835;-66
2022/01/15 11:55:24;;;;;;;16.90;13.80;;;7.40;99.90;;;;;;5087623;28;20463;-66
2022/01/15 11:57:56;;;;;;;16.03;13.27;;;7.50;99.90;;;;;;5090276;28;20448;-66
2022/01/15 12:00:34;;;;;;;16.10;12.67;;;7.50;99.90;;;;;;5089417;28;20460;-66
2022/01/15 12:03:21;;;;;;;15.50;13.97;;;7.60;99.90;;;;;;5078222;28;20460;-66
2022/01/15 12:05:59;;;;;;;15.10;12.57;;;7.60;99.90;;;;;;5076163;28;20437;-69
2022/01/15 12:08:33;;;;;;;13.57;12.17;;;7.60;99.90;;;;;;5076169;28;20429;-66
2022/01/15 12:11:04;;;;;;;16.00;13.10;;;7.60;99.90;;;;;;5075930;28;20563;-66
2022/01/15 12:13:42;;;;;;;14.00;12.47;;;7.60;99.90;;;;;;5075846;28;20472;-66
2022/01/15 12:16:25;;;;;;;17.47;13.43;;;7.60;99.90;;;;;;5075894;28;20444;-66
2022/01/15 12:18:52;;;;;;;15.17;13.17;;;7.70;99.90;;;;;;5075786;28;20444;-66
2022/01/15 12:21:42;;;;;;;15.53;12.80;;;7.60;99.90;;;;;;5075794;28;20448;-66
2022/01/15 12:24:37;;;;;;;16.13;13.10;;;7.70;99.90;;;;;;5075710;28;20469;-66
2022/01/15 12:27:07;;;;;;;17.30;12.80;;;7.70;99.90;;;;;;5066330;28;20448;-66
2022/01/15 12:29:35;;;;;;;16.57;13.10;;;7.70;99.90;;;;;;5075414;28;20932;-66
2022/01/15 12:32:01;;;;;;;14.03;12.40;;;7.70;99.90;;;;;;5075575;28;20476;-66
2022/01/15 12:34:29;;;;;;;13.80;12.37;;;7.70;99.90;;;;;;5075604;28;20440;-66
2022/01/15 12:36:56;;;;;;;15.20;12.50;;;7.70;99.90;;;;;;5075567;28;20448;-66
2022/01/15 12:39:35;;;;;;;16.83;12.10;;;7.70;99.90;;;;;;5075237;28;20436;-66
2022/01/15 12:42:03;;;;;;;13.70;12.23;;;7.70;99.90;;;;;;5075489;28;20428;-66
2022/01/15 12:44:31;;;;;;;14.90;12.73;;;7.70;99.90;;;;;;5075442;28;20819;-66
2022/01/15 12:46:59;;;;;;;18.10;13.70;;;7.70;99.90;;;;;;5075472;28;20445;-66
2022/01/15 12:49:37;;;;;;;20.77;16.93;;;7.70;99.90;;;;;;5075034;28;20820;-66
2022/01/15 12:52:13;;;;;;;20.27;14.80;;;7.70;99.90;;;;;;5074904;28;20566;-66
2022/01/15 12:54:47;;;;;;;22.27;14.70;;;7.70;99.90;;;;;;5075169;28;20472;-66
2022/01/15 12:57:15;;;;;;;17.17;13.30;;;7.50;99.90;;;;;;5075049;28;20451;-66
2022/01/15 12:59:43;;;;;;;17.60;14.20;;;7.40;99.90;;;;;;5075315;28;20453;-66
2022/01/15 13:02:10;;;;;;;15.07;11.93;;;7.40;99.90;;;;;;5074707;28;20499;-66
2022/01/15 13:04:37;;;;;;;13.90;12.07;;;7.30;99.90;;;;;;5075132;28;20448;-66
2022/01/15 13:07:04;;;;;;;16.40;13.10;;;7.20;99.90;;;;;;5075314;28;20955;-65
2022/01/15 13:09:49;;;;;;;14.97;13.30;;;7.20;99.90;;;;;;5074845;28;20441;-65
2022/01/15 13:12:16;;;;;;;15.40;12.87;;;7.10;99.90;;;;;;5074659;28;20484;-67
2022/01/15 13:14:45;;;;;;;13.70;12.30;;;7.10;99.90;;;;;;5073815;28;20814;-66
2022/01/15 13:17:26;;;;;;;14.67;12.37;;;7.10;99.90;;;;;;5074766;28;20543;-66
2022/01/15 13:19:53;;;;;;;14.03;12.53;;;7.00;99.90;;;;;;5075461;28;20453;-66
2022/01/15 13:22:21;;;;;;;16.13;14.00;;;6.90;99.90;;;;;;5074544;28;20456;-66
2022/01/15 13:24:48;;;;;;;18.47;14.30;;;6.90;99.90;;;;;;5074627;28;20840;-66
2022/01/15 13:27:21;;;;;;;16.80;13.13;;;6.80;99.90;;;;;;5074622;28;20444;-66
2022/01/15 13:29:49;;;;;;;14.80;13.30;;;6.80;99.90;;;;;;5074272;28;20900;-66
2022/01/15 13:32:16;;;;;;;15.80;12.97;;;6.80;99.90;;;;;;5074344;28;20484;-66
2022/01/15 13:34:48;;;;;;;15.70;12.50;;;6.70;99.90;;;;;;5074130;28;20444;-66
2022/01/15 13:37:19;;;;;;;15.50;13.60;;;6.80;99.90;;;;;;5074437;28;20623;-66
2022/01/15 13:39:47;;;;;;;16.37;13.43;;;6.80;99.90;;;;;;5074321;28;20432;-66
2022/01/15 13:42:18;;;;;;;16.87;14.60;;;6.80;99.90;;;;;;5074205;28;20504;-66